Terminal Aerodrome Forecast
Issued by NWS

Home | Current Version | Previous Version | Text Only | Print | Product List | Glossary On
Versions: 1 2 3 4 5 6 7 8 9 10 11 12 13 14 15 16 17 18
000
FTUS45 KREV 301120
TAFTRK
TAF
KTRK 301120Z 3012/0112 02007KT P6SM BKN025 BKN035
     FM301800 04011G18KT P6SM SCT040
     FM010300 VRB03KT P6SM FEW040=

USA.gov is the U.S. government's official web portal to all federal, state and local government web resources and services.